sensor_id;sensor_type;location;lat;lon;timestamp;P1;durP1;ratioP1;P2;durP2;ratioP2
61015;SDS011;46902;52.920;6.536;2023-02-28T00:00:02;7.00;;;2.22;;
61015;SDS011;46902;52.920;6.536;2023-02-28T00:02:35;8.63;;;2.58;;
61015;SDS011;46902;52.920;6.536;2023-02-28T00:05:05;9.25;;;2.65;;
61015;SDS011;46902;52.920;6.536;2023-02-28T00:07:31;6.55;;;2.50;;
61015;SDS011;46902;52.920;6.536;2023-02-28T00:09:57;9.02;;;2.97;;
61015;SDS011;46902;52.920;6.536;2023-02-28T00:12:23;8.32;;;2.83;;
61015;SDS011;46902;52.920;6.536;2023-02-28T00:14:49;4.30;;;2.40;;
61015;SDS011;46902;52.920;6.536;2023-02-28T00:17:15;7.07;;;2.63;;
61015;SDS011;46902;52.920;6.536;2023-02-28T00:19:45;9.63;;;2.90;;
61015;SDS011;46902;52.920;6.536;2023-02-28T00:22:13;9.30;;;2.53;;
61015;SDS011;46902;52.920;6.536;2023-02-28T00:24:38;7.60;;;2.53;;
61015;SDS011;46902;52.920;6.536;2023-02-28T00:27:04;6.93;;;2.72;;
61015;SDS011;46902;52.920;6.536;2023-02-28T00:29:30;9.10;;;3.10;;
61015;SDS011;46902;52.920;6.536;2023-02-28T00:31:55;9.45;;;2.97;;
61015;SDS011;46902;52.920;6.536;2023-02-28T00:34:21;9.38;;;3.00;;
61015;SDS011;46902;52.920;6.536;2023-02-28T00:36:46;5.40;;;2.30;;
61015;SDS011;46902;52.920;6.536;2023-02-28T00:39:15;6.72;;;2.63;;
61015;SDS011;46902;52.920;6.536;2023-02-28T00:41:40;8.25;;;2.60;;
61015;SDS011;46902;52.920;6.536;2023-02-28T00:44:06;6.90;;;2.50;;
61015;SDS011;46902;52.920;6.536;2023-02-28T00:46:32;7.25;;;2.45;;
61015;SDS011;46902;52.920;6.536;2023-02-28T00:48:57;8.23;;;2.47;;
61015;SDS011;46902;52.920;6.536;2023-02-28T00:51:24;8.40;;;2.63;;
61015;SDS011;46902;52.920;6.536;2023-02-28T00:53:49;8.88;;;2.15;;
61015;SDS011;46902;52.920;6.536;2023-02-28T00:56:15;7.75;;;2.85;;
61015;SDS011;46902;52.920;6.536;2023-02-28T00:58:41;10.50;;;2.90;;
61015;SDS011;46902;52.920;6.536;2023-02-28T01:01:07;6.15;;;2.65;;
61015;SDS011;46902;52.920;6.536;2023-02-28T01:03:33;8.38;;;2.60;;
61015;SDS011;46902;52.920;6.536;2023-02-28T01:05:58;8.55;;;2.67;;
61015;SDS011;46902;52.920;6.536;2023-02-28T01:08:24;8.40;;;3.00;;
61015;SDS011;46902;52.920;6.536;2023-02-28T01:10:51;7.13;;;2.50;;
61015;SDS011;46902;52.920;6.536;2023-02-28T01:13:17;7.38;;;2.90;;
61015;SDS011;46902;52.920;6.536;2023-02-28T01:15:46;7.95;;;2.72;;
61015;SDS011;46902;52.920;6.536;2023-02-28T01:18:16;5.18;;;2.53;;
61015;SDS011;46902;52.920;6.536;2023-02-28T01:20:41;7.00;;;2.55;;
61015;SDS011;46902;52.920;6.536;2023-02-28T01:23:07;9.70;;;2.95;;
61015;SDS011;46902;52.920;6.536;2023-02-28T01:25:36;7.63;;;2.60;;
61015;SDS011;46902;52.920;6.536;2023-02-28T01:28:02;7.30;;;2.60;;
61015;SDS011;46902;52.920;6.536;2023-02-28T01:30:28;10.07;;;3.55;;
61015;SDS011;46902;52.920;6.536;2023-02-28T01:32:53;12.60;;;3.20;;
61015;SDS011;46902;52.920;6.536;2023-02-28T01:35:19;5.72;;;2.70;;
61015;SDS011;46902;52.920;6.536;2023-02-28T01:37:45;7.85;;;3.03;;
61015;SDS011;46902;52.920;6.536;2023-02-28T01:40:11;11.00;;;3.20;;
61015;SDS011;46902;52.920;6.536;2023-02-28T01:42:37;6.88;;;2.97;;
61015;SDS011;46902;52.920;6.536;2023-02-28T01:45:17;10.18;;;3.17;;
61015;SDS011;46902;52.920;6.536;2023-02-28T01:47:55;11.52;;;3.58;;
61015;SDS011;46902;52.920;6.536;2023-02-28T01:50:28;9.10;;;2.70;;
61015;SDS011;46902;52.920;6.536;2023-02-28T01:52:56;12.40;;;3.10;;
61015;SDS011;46902;52.920;6.536;2023-02-28T01:55:27;9.52;;;3.17;;
61015;SDS011;46902;52.920;6.536;2023-02-28T01:57:55;9.20;;;3.35;;
61015;SDS011;46902;52.920;6.536;2023-02-28T02:00:24;9.27;;;3.13;;
61015;SDS011;46902;52.920;6.536;2023-02-28T02:02:55;11.43;;;3.63;;
61015;SDS011;46902;52.920;6.536;2023-02-28T02:05:25;7.15;;;3.10;;
61015;SDS011;46902;52.920;6.536;2023-02-28T02:08:04;9.00;;;3.70;;
61015;SDS011;46902;52.920;6.536;2023-02-28T02:18:43;8.02;;;2.45;;
61015;SDS011;46902;52.920;6.536;2023-02-28T02:27:26;6.88;;;3.05;;
61015;SDS011;46902;52.920;6.536;2023-02-28T02:35:11;7.07;;;2.83;;
61015;SDS011;46902;52.920;6.536;2023-02-28T02:37:59;8.20;;;2.92;;
61015;SDS011;46902;52.920;6.536;2023-02-28T02:40:38;6.88;;;3.20;;
61015;SDS011;46902;52.920;6.536;2023-02-28T02:46:18;7.20;;;2.85;;
61015;SDS011;46902;52.920;6.536;2023-02-28T02:48:48;6.90;;;2.90;;
61015;SDS011;46902;52.920;6.536;2023-02-28T02:51:16;4.20;;;2.80;;
61015;SDS011;46902;52.920;6.536;2023-02-28T02:53:49;7.32;;;2.97;;
61015;SDS011;46902;52.920;6.536;2023-02-28T02:56:23;6.63;;;3.17;;
61015;SDS011;46902;52.920;6.536;2023-02-28T02:58:51;6.22;;;2.60;;
61015;SDS011;46902;52.920;6.536;2023-02-28T03:01:22;8.13;;;3.00;;
61015;SDS011;46902;52.920;6.536;2023-02-28T03:04:16;6.95;;;3.05;;
61015;SDS011;46902;52.920;6.536;2023-02-28T03:06:41;9.23;;;2.95;;
61015;SDS011;46902;52.920;6.536;2023-02-28T03:09:07;7.78;;;3.17;;
61015;SDS011;46902;52.920;6.536;2023-02-28T03:11:34;9.40;;;3.47;;
61015;SDS011;46902;52.920;6.536;2023-02-28T03:25:27;7.77;;;3.43;;
61015;SDS011;46902;52.920;6.536;2023-02-28T03:30:42;6.85;;;3.33;;
61015;SDS011;46902;52.920;6.536;2023-02-28T03:33:36;6.90;;;3.42;;
61015;SDS011;46902;52.920;6.536;2023-02-28T03:36:10;7.85;;;3.83;;
61015;SDS011;46902;52.920;6.536;2023-02-28T03:38:41;8.00;;;3.92;;
61015;SDS011;46902;52.920;6.536;2023-02-28T03:41:19;6.43;;;3.70;;
61015;SDS011;46902;52.920;6.536;2023-02-28T03:44:18;7.75;;;3.65;;
61015;SDS011;46902;52.920;6.536;2023-02-28T03:47:00;10.35;;;4.03;;
61015;SDS011;46902;52.920;6.536;2023-02-28T03:49:42;9.73;;;3.97;;
61015;SDS011;46902;52.920;6.536;2023-02-28T03:52:14;8.73;;;4.20;;
61015;SDS011;46902;52.920;6.536;2023-02-28T03:54:43;7.78;;;3.60;;
61015;SDS011;46902;52.920;6.536;2023-02-28T03:59:59;10.10;;;4.85;;
61015;SDS011;46902;52.920;6.536;2023-02-28T04:02:32;9.07;;;5.38;;
61015;SDS011;46902;52.920;6.536;2023-02-28T04:04:59;8.52;;;5.95;;
61015;SDS011;46902;52.920;6.536;2023-02-28T04:07:28;9.82;;;5.50;;
61015;SDS011;46902;52.920;6.536;2023-02-28T04:09:54;8.00;;;5.63;;
61015;SDS011;46902;52.920;6.536;2023-02-28T04:12:20;10.30;;;5.45;;
61015;SDS011;46902;52.920;6.536;2023-02-28T04:14:48;9.73;;;5.40;;
61015;SDS011;46902;52.920;6.536;2023-02-28T04:17:14;9.98;;;6.20;;
61015;SDS011;46902;52.920;6.536;2023-02-28T04:19:40;8.75;;;6.07;;
61015;SDS011;46902;52.920;6.536;2023-02-28T04:22:06;10.32;;;6.57;;
61015;SDS011;46902;52.920;6.536;2023-02-28T04:24:33;11.93;;;7.75;;
61015;SDS011;46902;52.920;6.536;2023-02-28T04:26:58;12.40;;;6.97;;
61015;SDS011;46902;52.920;6.536;2023-02-28T04:29:24;10.57;;;6.80;;
61015;SDS011;46902;52.920;6.536;2023-02-28T04:31:54;10.60;;;7.55;;
61015;SDS011;46902;52.920;6.536;2023-02-28T04:34:23;12.68;;;7.00;;
61015;SDS011;46902;52.920;6.536;2023-02-28T04:36:49;11.52;;;7.22;;
61015;SDS011;46902;52.920;6.536;2023-02-28T04:39:16;12.45;;;8.20;;
61015;SDS011;46902;52.920;6.536;2023-02-28T04:41:43;13.05;;;7.93;;
61015;SDS011;46902;52.920;6.536;2023-02-28T04:44:09;15.68;;;9.10;;
61015;SDS011;46902;52.920;6.536;2023-02-28T04:46:35;19.20;;;9.32;;
61015;SDS011;46902;52.920;6.536;2023-02-28T04:49:01;12.00;;;8.73;;
61015;SDS011;46902;52.920;6.536;2023-02-28T04:51:26;16.00;;;9.52;;
61015;SDS011;46902;52.920;6.536;2023-02-28T04:53:52;15.73;;;9.52;;
61015;SDS011;46902;52.920;6.536;2023-02-28T04:56:18;16.75;;;10.25;;
61015;SDS011;46902;52.920;6.536;2023-02-28T04:58:44;17.40;;;10.27;;
61015;SDS011;46902;52.920;6.536;2023-02-28T05:01:18;14.50;;;10.02;;
61015;SDS011;46902;52.920;6.536;2023-02-28T05:03:55;16.60;;;10.30;;
61015;SDS011;46902;52.920;6.536;2023-02-28T05:06:23;13.77;;;10.48;;
61015;SDS011;46902;52.920;6.536;2023-02-28T05:08:50;19.05;;;10.88;;
61015;SDS011;46902;52.920;6.536;2023-02-28T05:11:20;17.27;;;10.75;;
61015;SDS011;46902;52.920;6.536;2023-02-28T05:13:51;16.23;;;10.77;;
61015;SDS011;46902;52.920;6.536;2023-02-28T05:16:18;18.00;;;11.10;;
61015;SDS011;46902;52.920;6.536;2023-02-28T05:18:44;20.23;;;11.45;;
61015;SDS011;46902;52.920;6.536;2023-02-28T05:23:56;17.35;;;11.40;;
61015;SDS011;46902;52.920;6.536;2023-02-28T05:26:23;17.08;;;11.27;;
61015;SDS011;46902;52.920;6.536;2023-02-28T05:28:50;18.60;;;11.95;;
61015;SDS011;46902;52.920;6.536;2023-02-28T05:31:15;16.48;;;11.45;;
61015;SDS011;46902;52.920;6.536;2023-02-28T05:33:41;18.10;;;11.45;;
61015;SDS011;46902;52.920;6.536;2023-02-28T05:36:07;16.73;;;11.07;;
61015;SDS011;46902;52.920;6.536;2023-02-28T05:38:33;17.02;;;11.90;;
61015;SDS011;46902;52.920;6.536;2023-02-28T05:40:58;16.15;;;10.98;;
61015;SDS011;46902;52.920;6.536;2023-02-28T05:43:24;16.52;;;10.88;;
61015;SDS011;46902;52.920;6.536;2023-02-28T05:45:50;20.02;;;11.52;;
61015;SDS011;46902;52.920;6.536;2023-02-28T05:48:15;18.48;;;10.90;;
61015;SDS011;46902;52.920;6.536;2023-02-28T05:50:43;21.60;;;11.48;;
61015;SDS011;46902;52.920;6.536;2023-02-28T05:53:10;20.17;;;11.35;;
61015;SDS011;46902;52.920;6.536;2023-02-28T05:55:36;19.20;;;11.15;;
61015;SDS011;46902;52.920;6.536;2023-02-28T05:58:03;15.77;;;10.38;;
61015;SDS011;46902;52.920;6.536;2023-02-28T06:00:29;18.83;;;10.90;;
61015;SDS011;46902;52.920;6.536;2023-02-28T06:02:54;20.52;;;10.50;;
61015;SDS011;46902;52.920;6.536;2023-02-28T06:05:23;21.33;;;12.48;;
61015;SDS011;46902;52.920;6.536;2023-02-28T06:07:49;18.35;;;11.27;;
61015;SDS011;46902;52.920;6.536;2023-02-28T06:10:15;19.33;;;12.27;;
61015;SDS011;46902;52.920;6.536;2023-02-28T06:12:41;18.80;;;11.63;;
61015;SDS011;46902;52.920;6.536;2023-02-28T06:15:07;16.40;;;10.95;;
61015;SDS011;46902;52.920;6.536;2023-02-28T06:17:42;20.30;;;11.95;;
61015;SDS011;46902;52.920;6.536;2023-02-28T06:20:09;17.30;;;11.35;;
61015;SDS011;46902;52.920;6.536;2023-02-28T06:22:37;17.30;;;11.23;;
61015;SDS011;46902;52.920;6.536;2023-02-28T06:25:05;20.00;;;11.65;;
61015;SDS011;46902;52.920;6.536;2023-02-28T06:27:31;17.08;;;11.35;;
61015;SDS011;46902;52.920;6.536;2023-02-28T06:29:58;18.15;;;11.18;;
61015;SDS011;46902;52.920;6.536;2023-02-28T06:32:24;17.40;;;12.10;;
61015;SDS011;46902;52.920;6.536;2023-02-28T06:34:49;18.20;;;11.23;;
61015;SDS011;46902;52.920;6.536;2023-02-28T06:37:15;20.30;;;10.98;;
61015;SDS011;46902;52.920;6.536;2023-02-28T06:39:41;17.58;;;11.63;;
61015;SDS011;46902;52.920;6.536;2023-02-28T06:42:07;20.45;;;11.73;;
61015;SDS011;46902;52.920;6.536;2023-02-28T06:44:33;20.38;;;11.45;;
61015;SDS011;46902;52.920;6.536;2023-02-28T06:47:00;18.25;;;10.95;;
61015;SDS011;46902;52.920;6.536;2023-02-28T06:49:30;16.88;;;10.80;;
61015;SDS011;46902;52.920;6.536;2023-02-28T06:51:56;18.27;;;11.23;;
61015;SDS011;46902;52.920;6.536;2023-02-28T06:54:22;19.08;;;10.40;;
61015;SDS011;46902;52.920;6.536;2023-02-28T06:56:47;17.95;;;11.70;;
61015;SDS011;46902;52.920;6.536;2023-02-28T06:59:13;17.50;;;11.10;;
61015;SDS011;46902;52.920;6.536;2023-02-28T07:01:39;17.98;;;11.80;;
61015;SDS011;46902;52.920;6.536;2023-02-28T07:04:05;16.63;;;11.38;;
61015;SDS011;46902;52.920;6.536;2023-02-28T07:06:31;21.33;;;11.35;;
61015;SDS011;46902;52.920;6.536;2023-02-28T07:08:57;15.45;;;10.93;;
61015;SDS011;46902;52.920;6.536;2023-02-28T07:11:24;18.50;;;12.00;;
61015;SDS011;46902;52.920;6.536;2023-02-28T07:13:54;15.57;;;10.40;;
61015;SDS011;46902;52.920;6.536;2023-02-28T07:16:20;16.00;;;11.80;;
61015;SDS011;46902;52.920;6.536;2023-02-28T07:18:47;14.68;;;11.05;;
61015;SDS011;46902;52.920;6.536;2023-02-28T07:21:13;15.90;;;11.50;;
61015;SDS011;46902;52.920;6.536;2023-02-28T07:23:39;15.35;;;9.63;;
61015;SDS011;46902;52.920;6.536;2023-02-28T07:26:06;16.70;;;11.00;;
61015;SDS011;46902;52.920;6.536;2023-02-28T07:28:32;15.73;;;10.45;;
61015;SDS011;46902;52.920;6.536;2023-02-28T07:31:02;17.17;;;10.80;;
61015;SDS011;46902;52.920;6.536;2023-02-28T07:33:32;18.70;;;10.45;;
61015;SDS011;46902;52.920;6.536;2023-02-28T07:36:15;16.58;;;10.52;;
61015;SDS011;46902;52.920;6.536;2023-02-28T07:38:43;15.32;;;10.88;;
61015;SDS011;46902;52.920;6.536;2023-02-28T07:41:11;14.55;;;10.38;;
61015;SDS011;46902;52.920;6.536;2023-02-28T07:43:37;14.02;;;10.00;;
61015;SDS011;46902;52.920;6.536;2023-02-28T07:46:07;14.52;;;10.55;;
61015;SDS011;46902;52.920;6.536;2023-02-28T07:48:34;17.63;;;9.68;;
61015;SDS011;46902;52.920;6.536;2023-02-28T07:51:00;17.10;;;11.13;;
61015;SDS011;46902;52.920;6.536;2023-02-28T07:53:27;16.23;;;10.20;;
61015;SDS011;46902;52.920;6.536;2023-02-28T07:55:56;15.23;;;9.45;;
61015;SDS011;46902;52.920;6.536;2023-02-28T07:58:22;15.23;;;10.07;;
61015;SDS011;46902;52.920;6.536;2023-02-28T08:00:49;13.18;;;10.00;;
61015;SDS011;46902;52.920;6.536;2023-02-28T08:03:17;17.80;;;10.30;;
61015;SDS011;46902;52.920;6.536;2023-02-28T08:05:43;14.80;;;10.18;;
61015;SDS011;46902;52.920;6.536;2023-02-28T08:08:09;15.48;;;9.75;;
61015;SDS011;46902;52.920;6.536;2023-02-28T08:10:36;14.75;;;10.20;;
61015;SDS011;46902;52.920;6.536;2023-02-28T08:13:01;13.25;;;9.70;;
61015;SDS011;46902;52.920;6.536;2023-02-28T08:15:27;16.42;;;9.98;;
61015;SDS011;46902;52.920;6.536;2023-02-28T08:17:53;15.32;;;10.68;;
61015;SDS011;46902;52.920;6.536;2023-02-28T08:20:21;16.60;;;10.88;;
61015;SDS011;46902;52.920;6.536;2023-02-28T08:22:47;13.88;;;10.10;;
61015;SDS011;46902;52.920;6.536;2023-02-28T08:25:13;16.00;;;9.77;;
61015;SDS011;46902;52.920;6.536;2023-02-28T08:27:39;18.17;;;8.93;;
61015;SDS011;46902;52.920;6.536;2023-02-28T08:30:05;17.83;;;10.68;;
61015;SDS011;46902;52.920;6.536;2023-02-28T08:32:32;17.63;;;11.38;;
61015;SDS011;46902;52.920;6.536;2023-02-28T08:34:58;16.77;;;10.43;;
61015;SDS011;46902;52.920;6.536;2023-02-28T08:37:24;14.52;;;10.00;;
61015;SDS011;46902;52.920;6.536;2023-02-28T08:39:49;18.38;;;9.40;;
61015;SDS011;46902;52.920;6.536;2023-02-28T08:42:15;16.40;;;9.25;;
61015;SDS011;46902;52.920;6.536;2023-02-28T08:44:41;15.75;;;9.27;;
61015;SDS011;46902;52.920;6.536;2023-02-28T08:47:06;16.88;;;10.27;;
61015;SDS011;46902;52.920;6.536;2023-02-28T08:49:32;12.82;;;9.75;;
61015;SDS011;46902;52.920;6.536;2023-02-28T08:51:57;17.98;;;10.88;;
61015;SDS011;46902;52.920;6.536;2023-02-28T08:54:23;13.45;;;9.50;;
61015;SDS011;46902;52.920;6.536;2023-02-28T08:56:49;14.48;;;9.85;;
61015;SDS011;46902;52.920;6.536;2023-02-28T08:59:15;17.55;;;9.60;;
61015;SDS011;46902;52.920;6.536;2023-02-28T09:01:41;15.85;;;10.00;;
61015;SDS011;46902;52.920;6.536;2023-02-28T09:04:08;14.75;;;9.68;;
61015;SDS011;46902;52.920;6.536;2023-02-28T09:06:35;18.15;;;9.88;;
61015;SDS011;46902;52.920;6.536;2023-02-28T09:09:01;13.15;;;9.38;;
61015;SDS011;46902;52.920;6.536;2023-02-28T09:11:29;14.55;;;8.35;;
61015;SDS011;46902;52.920;6.536;2023-02-28T09:13:55;13.50;;;8.50;;
61015;SDS011;46902;52.920;6.536;2023-02-28T09:16:21;15.02;;;8.48;;
61015;SDS011;46902;52.920;6.536;2023-02-28T09:18:47;13.00;;;8.57;;
61015;SDS011;46902;52.920;6.536;2023-02-28T09:21:14;13.70;;;8.10;;
61015;SDS011;46902;52.920;6.536;2023-02-28T09:23:42;11.65;;;7.63;;
61015;SDS011;46902;52.920;6.536;2023-02-28T09:26:13;10.55;;;6.90;;
61015;SDS011;46902;52.920;6.536;2023-02-28T09:28:44;10.05;;;6.95;;
61015;SDS011;46902;52.920;6.536;2023-02-28T09:31:11;11.13;;;6.70;;
61015;SDS011;46902;52.920;6.536;2023-02-28T09:33:41;10.00;;;5.65;;
61015;SDS011;46902;52.920;6.536;2023-02-28T09:36:07;8.95;;;5.82;;
61015;SDS011;46902;52.920;6.536;2023-02-28T09:38:33;8.85;;;5.30;;
61015;SDS011;46902;52.920;6.536;2023-02-28T09:41:03;9.27;;;5.53;;
61015;SDS011;46902;52.920;6.536;2023-02-28T09:43:38;6.68;;;5.00;;
61015;SDS011;46902;52.920;6.536;2023-02-28T09:46:14;8.13;;;5.50;;
61015;SDS011;46902;52.920;6.536;2023-02-28T09:48:49;9.70;;;5.55;;
61015;SDS011;46902;52.920;6.536;2023-02-28T09:51:23;9.38;;;5.25;;
61015;SDS011;46902;52.920;6.536;2023-02-28T09:53:58;7.10;;;4.60;;
61015;SDS011;46902;52.920;6.536;2023-02-28T09:56:25;6.72;;;3.85;;
61015;SDS011;46902;52.920;6.536;2023-02-28T10:01:57;5.57;;;3.30;;
61015;SDS011;46902;52.920;6.536;2023-02-28T10:06:54;5.47;;;3.42;;
61015;SDS011;46902;52.920;6.536;2023-02-28T10:09:26;6.05;;;3.53;;
61015;SDS011;46902;52.920;6.536;2023-02-28T10:12:03;7.13;;;3.42;;
61015;SDS011;46902;52.920;6.536;2023-02-28T10:14:34;7.05;;;3.65;;
61015;SDS011;46902;52.920;6.536;2023-02-28T10:17:12;6.03;;;3.95;;
61015;SDS011;46902;52.920;6.536;2023-02-28T10:20:02;7.25;;;4.38;;
61015;SDS011;46902;52.920;6.536;2023-02-28T10:23:21;7.53;;;4.22;;
61015;SDS011;46902;52.920;6.536;2023-02-28T10:25:45;8.30;;;3.85;;
61015;SDS011;46902;52.920;6.536;2023-02-28T10:28:17;7.03;;;4.20;;
61015;SDS011;46902;52.920;6.536;2023-02-28T10:30:48;7.93;;;4.57;;
61015;SDS011;46902;52.920;6.536;2023-02-28T10:33:23;10.63;;;5.00;;
61015;SDS011;46902;52.920;6.536;2023-02-28T10:35:49;6.50;;;4.20;;
61015;SDS011;46902;52.920;6.536;2023-02-28T10:38:18;8.00;;;4.70;;
61015;SDS011;46902;52.920;6.536;2023-02-28T10:40:46;7.72;;;4.82;;
61015;SDS011;46902;52.920;6.536;2023-02-28T10:45:37;7.95;;;5.15;;
61015;SDS011;46902;52.920;6.536;2023-02-28T10:50:47;9.02;;;5.05;;
61015;SDS011;46902;52.920;6.536;2023-02-28T10:53:28;9.45;;;4.93;;
61015;SDS011;46902;52.920;6.536;2023-02-28T10:56:05;7.15;;;4.88;;
61015;SDS011;46902;52.920;6.536;2023-02-28T11:01:44;8.32;;;4.63;;
61015;SDS011;46902;52.920;6.536;2023-02-28T11:06:58;7.13;;;4.45;;
61015;SDS011;46902;52.920;6.536;2023-02-28T11:11:58;8.20;;;4.30;;
61015;SDS011;46902;52.920;6.536;2023-02-28T11:14:27;6.70;;;3.75;;
61015;SDS011;46902;52.920;6.536;2023-02-28T11:16:55;7.18;;;4.00;;
61015;SDS011;46902;52.920;6.536;2023-02-28T11:19:27;6.63;;;4.00;;
61015;SDS011;46902;52.920;6.536;2023-02-28T11:22:02;7.10;;;4.00;;
61015;SDS011;46902;52.920;6.536;2023-02-28T11:24:34;7.95;;;4.15;;
61015;SDS011;46902;52.920;6.536;2023-02-28T11:29:58;7.68;;;4.75;;
61015;SDS011;46902;52.920;6.536;2023-02-28T11:32:25;9.50;;;5.22;;
61015;SDS011;46902;52.920;6.536;2023-02-28T11:35:01;8.65;;;4.38;;
61015;SDS011;46902;52.920;6.536;2023-02-28T11:37:33;8.13;;;4.70;;
61015;SDS011;46902;52.920;6.536;2023-02-28T11:39:59;6.38;;;4.68;;
61015;SDS011;46902;52.920;6.536;2023-02-28T11:42:32;7.97;;;4.70;;
61015;SDS011;46902;52.920;6.536;2023-02-28T12:00:22;7.30;;;4.15;;
61015;SDS011;46902;52.920;6.536;2023-02-28T12:03:16;5.75;;;3.83;;
61015;SDS011;46902;52.920;6.536;2023-02-28T12:05:46;8.90;;;4.53;;
61015;SDS011;46902;52.920;6.536;2023-02-28T12:08:32;6.05;;;3.67;;
61015;SDS011;46902;52.920;6.536;2023-02-28T12:11:29;11.50;;;4.53;;
61015;SDS011;46902;52.920;6.536;2023-02-28T12:17:13;5.95;;;3.33;;
61015;SDS011;46902;52.920;6.536;2023-02-28T12:25:32;4.57;;;2.65;;
61015;SDS011;46902;52.920;6.536;2023-02-28T12:28:12;6.55;;;2.80;;
61015;SDS011;46902;52.920;6.536;2023-02-28T12:31:06;5.20;;;2.55;;
61015;SDS011;46902;52.920;6.536;2023-02-28T12:36:09;6.22;;;3.40;;
61015;SDS011;46902;52.920;6.536;2023-02-28T12:38:44;5.53;;;3.72;;
61015;SDS011;46902;52.920;6.536;2023-02-28T12:41:18;6.80;;;3.92;;
61015;SDS011;46902;52.920;6.536;2023-02-28T12:43:49;5.63;;;3.42;;
61015;SDS011;46902;52.920;6.536;2023-02-28T12:46:37;5.70;;;3.47;;
61015;SDS011;46902;52.920;6.536;2023-02-28T12:49:08;9.20;;;4.32;;
61015;SDS011;46902;52.920;6.536;2023-02-28T12:51:50;6.68;;;3.22;;
61015;SDS011;46902;52.920;6.536;2023-02-28T12:54:25;6.15;;;3.17;;
61015;SDS011;46902;52.920;6.536;2023-02-28T12:56:56;4.72;;;3.00;;
61015;SDS011;46902;52.920;6.536;2023-02-28T12:59:42;4.65;;;3.03;;
61015;SDS011;46902;52.920;6.536;2023-02-28T13:05:10;5.10;;;2.60;;
61015;SDS011;46902;52.920;6.536;2023-02-28T13:10:37;4.88;;;2.50;;
61015;SDS011;46902;52.920;6.536;2023-02-28T13:13:26;4.00;;;2.40;;
61015;SDS011;46902;52.920;6.536;2023-02-28T13:16:01;4.32;;;2.58;;
61015;SDS011;46902;52.920;6.536;2023-02-28T13:18:33;4.03;;;2.10;;
61015;SDS011;46902;52.920;6.536;2023-02-28T13:21:05;4.75;;;2.58;;
61015;SDS011;46902;52.920;6.536;2023-02-28T13:23:37;4.30;;;2.50;;
61015;SDS011;46902;52.920;6.536;2023-02-28T13:26:12;4.80;;;2.35;;
61015;SDS011;46902;52.920;6.536;2023-02-28T13:31:23;5.13;;;2.72;;
61015;SDS011;46902;52.920;6.536;2023-02-28T13:36:30;4.65;;;2.70;;
61015;SDS011;46902;52.920;6.536;2023-02-28T13:38:58;5.47;;;2.80;;
61015;SDS011;46902;52.920;6.536;2023-02-28T13:44:06;5.53;;;2.72;;
61015;SDS011;46902;52.920;6.536;2023-02-28T13:46:32;4.43;;;2.80;;
61015;SDS011;46902;52.920;6.536;2023-02-28T13:54:39;5.55;;;2.95;;
61015;SDS011;46902;52.920;6.536;2023-02-28T13:57:27;5.10;;;3.08;;
61015;SDS011;46902;52.920;6.536;2023-02-28T14:06:18;3.88;;;2.75;;
61015;SDS011;46902;52.920;6.536;2023-02-28T14:08:54;7.13;;;3.30;;
61015;SDS011;46902;52.920;6.536;2023-02-28T14:11:25;4.30;;;2.70;;
61015;SDS011;46902;52.920;6.536;2023-02-28T14:13:53;5.57;;;3.00;;
61015;SDS011;46902;52.920;6.536;2023-02-28T14:16:23;6.57;;;3.00;;
61015;SDS011;46902;52.920;6.536;2023-02-28T14:18:56;5.72;;;3.33;;
61015;SDS011;46902;52.920;6.536;2023-02-28T14:21:29;6.93;;;3.20;;
61015;SDS011;46902;52.920;6.536;2023-02-28T14:27:00;5.32;;;3.08;;
61015;SDS011;46902;52.920;6.536;2023-02-28T14:37:26;4.88;;;3.13;;
61015;SDS011;46902;52.920;6.536;2023-02-28T14:39:55;6.40;;;3.47;;
61015;SDS011;46902;52.920;6.536;2023-02-28T14:42:35;5.05;;;2.72;;
61015;SDS011;46902;52.920;6.536;2023-02-28T14:45:21;4.72;;;3.00;;
61015;SDS011;46902;52.920;6.536;2023-02-28T14:47:49;4.63;;;2.80;;
61015;SDS011;46902;52.920;6.536;2023-02-28T14:50:23;6.05;;;2.75;;
61015;SDS011;46902;52.920;6.536;2023-02-28T14:52:55;4.00;;;2.45;;
61015;SDS011;46902;52.920;6.536;2023-02-28T14:55:25;4.63;;;2.63;;
61015;SDS011;46902;52.920;6.536;2023-02-28T14:57:57;4.68;;;3.17;;
61015;SDS011;46902;52.920;6.536;2023-02-28T15:00:29;5.25;;;2.90;;
61015;SDS011;46902;52.920;6.536;2023-02-28T15:02:57;4.95;;;2.97;;
61015;SDS011;46902;52.920;6.536;2023-02-28T15:05:26;6.25;;;3.35;;
61015;SDS011;46902;52.920;6.536;2023-02-28T15:08:12;5.38;;;2.60;;
61015;SDS011;46902;52.920;6.536;2023-02-28T15:10:41;5.30;;;3.08;;
61015;SDS011;46902;52.920;6.536;2023-02-28T15:13:11;3.30;;;2.53;;
61015;SDS011;46902;52.920;6.536;2023-02-28T15:20:48;4.53;;;2.63;;
61015;SDS011;46902;52.920;6.536;2023-02-28T15:23:15;5.45;;;3.17;;
61015;SDS011;46902;52.920;6.536;2023-02-28T15:25:41;4.95;;;2.90;;
61015;SDS011;46902;52.920;6.536;2023-02-28T15:28:25;7.15;;;3.00;;
61015;SDS011;46902;52.920;6.536;2023-02-28T15:30:52;4.05;;;2.75;;
61015;SDS011;46902;52.920;6.536;2023-02-28T15:33:27;5.65;;;3.08;;
61015;SDS011;46902;52.920;6.536;2023-02-28T15:38:52;5.22;;;3.17;;
61015;SDS011;46902;52.920;6.536;2023-02-28T15:41:26;7.50;;;3.10;;
61015;SDS011;46902;52.920;6.536;2023-02-28T15:44:15;5.57;;;3.00;;
61015;SDS011;46902;52.920;6.536;2023-02-28T15:46:43;7.93;;;3.78;;
61015;SDS011;46902;52.920;6.536;2023-02-28T15:49:19;7.32;;;3.50;;
61015;SDS011;46902;52.920;6.536;2023-02-28T15:51:46;8.48;;;3.25;;
61015;SDS011;46902;52.920;6.536;2023-02-28T15:54:18;7.72;;;3.53;;
61015;SDS011;46902;52.920;6.536;2023-02-28T15:56:50;4.97;;;3.22;;
61015;SDS011;46902;52.920;6.536;2023-02-28T15:59:19;4.57;;;2.72;;
61015;SDS011;46902;52.920;6.536;2023-02-28T16:01:46;5.50;;;3.22;;
61015;SDS011;46902;52.920;6.536;2023-02-28T16:04:14;5.40;;;3.33;;
61015;SDS011;46902;52.920;6.536;2023-02-28T16:09:25;6.53;;;3.55;;
61015;SDS011;46902;52.920;6.536;2023-02-28T16:11:52;6.65;;;3.15;;
61015;SDS011;46902;52.920;6.536;2023-02-28T16:14:21;5.88;;;3.28;;
61015;SDS011;46902;52.920;6.536;2023-02-28T16:16:50;7.47;;;4.05;;
61015;SDS011;46902;52.920;6.536;2023-02-28T16:19:18;5.88;;;3.67;;
61015;SDS011;46902;52.920;6.536;2023-02-28T16:21:44;6.88;;;3.97;;
61015;SDS011;46902;52.920;6.536;2023-02-28T16:24:10;6.30;;;3.80;;
61015;SDS011;46902;52.920;6.536;2023-02-28T16:26:36;5.80;;;4.13;;
61015;SDS011;46902;52.920;6.536;2023-02-28T16:29:04;5.47;;;3.78;;
61015;SDS011;46902;52.920;6.536;2023-02-28T16:31:30;5.47;;;3.58;;
61015;SDS011;46902;52.920;6.536;2023-02-28T16:34:00;5.43;;;4.03;;
61015;SDS011;46902;52.920;6.536;2023-02-28T16:36:26;6.32;;;4.20;;
61015;SDS011;46902;52.920;6.536;2023-02-28T16:38:53;6.82;;;3.75;;
61015;SDS011;46902;52.920;6.536;2023-02-28T16:41:20;5.40;;;3.78;;
61015;SDS011;46902;52.920;6.536;2023-02-28T16:43:48;7.90;;;4.07;;
61015;SDS011;46902;52.920;6.536;2023-02-28T16:46:16;5.60;;;4.05;;
61015;SDS011;46902;52.920;6.536;2023-02-28T16:48:43;7.32;;;4.38;;
61015;SDS011;46902;52.920;6.536;2023-02-28T16:51:13;7.28;;;4.68;;
61015;SDS011;46902;52.920;6.536;2023-02-28T16:53:40;7.53;;;4.70;;
61015;SDS011;46902;52.920;6.536;2023-02-28T16:56:06;7.40;;;4.47;;
61015;SDS011;46902;52.920;6.536;2023-02-28T16:58:40;9.90;;;4.80;;
61015;SDS011;46902;52.920;6.536;2023-02-28T17:01:06;9.77;;;5.40;;
61015;SDS011;46902;52.920;6.536;2023-02-28T17:03:31;7.75;;;5.00;;
61015;SDS011;46902;52.920;6.536;2023-02-28T17:05:57;7.65;;;5.60;;
61015;SDS011;46902;52.920;6.536;2023-02-28T17:08:23;6.72;;;5.25;;
61015;SDS011;46902;52.920;6.536;2023-02-28T17:10:48;6.95;;;5.07;;